sensor_id;sensor_type;location;lat;lon;timestamp;P1;durP1;ratioP1;P2;durP2;ratioP2
76346;SDS011;77107;48.816;9.966;2024-03-08T00:01:15;18.73;;;15.00;;
76346;SDS011;77107;48.816;9.966;2024-03-08T00:03:41;21.27;;;15.53;;
76346;SDS011;77107;48.816;9.966;2024-03-08T00:06:06;19.53;;;15.10;;
76346;SDS011;77107;48.816;9.966;2024-03-08T00:08:32;18.70;;;15.13;;
76346;SDS011;77107;48.816;9.966;2024-03-08T00:10:57;19.60;;;14.07;;
76346;SDS011;77107;48.816;9.966;2024-03-08T00:13:23;18.73;;;14.70;;
76346;SDS011;77107;48.816;9.966;2024-03-08T00:15:51;20.20;;;15.73;;
76346;SDS011;77107;48.816;9.966;2024-03-08T00:18:17;18.47;;;15.30;;
76346;SDS011;77107;48.816;9.966;2024-03-08T00:20:42;19.17;;;14.90;;
76346;SDS011;77107;48.816;9.966;2024-03-08T00:23:09;19.97;;;15.20;;
76346;SDS011;77107;48.816;9.966;2024-03-08T00:25:36;19.07;;;13.60;;
76346;SDS011;77107;48.816;9.966;2024-03-08T00:28:01;19.00;;;14.43;;
76346;SDS011;77107;48.816;9.966;2024-03-08T00:30:26;16.87;;;13.90;;
76346;SDS011;77107;48.816;9.966;2024-03-08T00:32:53;18.10;;;14.13;;
76346;SDS011;77107;48.816;9.966;2024-03-08T00:35:18;17.37;;;13.87;;
76346;SDS011;77107;48.816;9.966;2024-03-08T00:37:44;16.27;;;13.50;;
76346;SDS011;77107;48.816;9.966;2024-03-08T00:40:12;16.10;;;13.37;;
76346;SDS011;77107;48.816;9.966;2024-03-08T00:42:37;16.97;;;12.97;;
76346;SDS011;77107;48.816;9.966;2024-03-08T00:45:05;18.67;;;14.33;;
76346;SDS011;77107;48.816;9.966;2024-03-08T00:47:30;17.87;;;13.97;;
76346;SDS011;77107;48.816;9.966;2024-03-08T00:49:57;18.40;;;13.60;;
76346;SDS011;77107;48.816;9.966;2024-03-08T00:52:23;16.93;;;13.97;;
76346;SDS011;77107;48.816;9.966;2024-03-08T00:54:49;18.13;;;13.20;;
76346;SDS011;77107;48.816;9.966;2024-03-08T00:57:14;16.97;;;13.70;;
76346;SDS011;77107;48.816;9.966;2024-03-08T00:59:40;16.93;;;13.53;;
76346;SDS011;77107;48.816;9.966;2024-03-08T01:02:05;19.13;;;13.90;;
76346;SDS011;77107;48.816;9.966;2024-03-08T01:04:31;18.13;;;13.30;;
76346;SDS011;77107;48.816;9.966;2024-03-08T01:06:59;18.17;;;13.63;;
76346;SDS011;77107;48.816;9.966;2024-03-08T01:09:24;17.77;;;14.57;;
76346;SDS011;77107;48.816;9.966;2024-03-08T01:11:51;17.90;;;13.50;;
76346;SDS011;77107;48.816;9.966;2024-03-08T01:14:18;17.37;;;13.90;;
76346;SDS011;77107;48.816;9.966;2024-03-08T01:16:43;16.53;;;14.07;;
76346;SDS011;77107;48.816;9.966;2024-03-08T01:19:08;17.70;;;13.83;;
76346;SDS011;77107;48.816;9.966;2024-03-08T01:21:34;17.20;;;13.37;;
76346;SDS011;77107;48.816;9.966;2024-03-08T01:24:00;16.20;;;13.60;;
76346;SDS011;77107;48.816;9.966;2024-03-08T01:26:26;19.00;;;14.77;;
76346;SDS011;77107;48.816;9.966;2024-03-08T01:28:51;18.80;;;14.10;;
76346;SDS011;77107;48.816;9.966;2024-03-08T01:31:16;17.27;;;14.47;;
76346;SDS011;77107;48.816;9.966;2024-03-08T01:33:42;17.77;;;13.93;;
76346;SDS011;77107;48.816;9.966;2024-03-08T01:36:07;18.23;;;14.23;;
76346;SDS011;77107;48.816;9.966;2024-03-08T01:38:33;18.73;;;14.30;;
76346;SDS011;77107;48.816;9.966;2024-03-08T01:41:00;18.23;;;14.97;;
76346;SDS011;77107;48.816;9.966;2024-03-08T01:43:26;17.30;;;14.20;;
76346;SDS011;77107;48.816;9.966;2024-03-08T01:45:53;18.80;;;14.00;;
76346;SDS011;77107;48.816;9.966;2024-03-08T01:48:19;18.03;;;14.30;;
76346;SDS011;77107;48.816;9.966;2024-03-08T01:50:48;17.50;;;13.83;;
76346;SDS011;77107;48.816;9.966;2024-03-08T01:53:14;17.63;;;14.17;;
76346;SDS011;77107;48.816;9.966;2024-03-08T01:55:42;16.70;;;13.97;;
76346;SDS011;77107;48.816;9.966;2024-03-08T01:58:12;17.70;;;13.73;;
76346;SDS011;77107;48.816;9.966;2024-03-08T02:00:41;17.07;;;13.80;;
76346;SDS011;77107;48.816;9.966;2024-03-08T02:03:09;18.70;;;14.83;;
76346;SDS011;77107;48.816;9.966;2024-03-08T02:05:35;18.30;;;14.07;;
76346;SDS011;77107;48.816;9.966;2024-03-08T02:08:01;16.90;;;13.97;;
76346;SDS011;77107;48.816;9.966;2024-03-08T02:10:27;18.73;;;14.23;;
76346;SDS011;77107;48.816;9.966;2024-03-08T02:12:53;17.77;;;14.87;;
76346;SDS011;77107;48.816;9.966;2024-03-08T02:15:20;18.53;;;14.53;;
76346;SDS011;77107;48.816;9.966;2024-03-08T02:17:46;18.67;;;14.77;;
76346;SDS011;77107;48.816;9.966;2024-03-08T02:20:12;19.33;;;14.90;;
76346;SDS011;77107;48.816;9.966;2024-03-08T02:22:39;18.07;;;14.60;;
76346;SDS011;77107;48.816;9.966;2024-03-08T02:25:05;18.57;;;14.83;;
76346;SDS011;77107;48.816;9.966;2024-03-08T02:27:31;17.63;;;14.40;;
76346;SDS011;77107;48.816;9.966;2024-03-08T02:29:57;17.47;;;14.20;;
76346;SDS011;77107;48.816;9.966;2024-03-08T02:32:23;18.37;;;14.23;;
76346;SDS011;77107;48.816;9.966;2024-03-08T02:34:49;17.37;;;14.80;;
76346;SDS011;77107;48.816;9.966;2024-03-08T02:37:14;20.07;;;15.03;;
76346;SDS011;77107;48.816;9.966;2024-03-08T02:39:41;18.27;;;14.87;;
76346;SDS011;77107;48.816;9.966;2024-03-08T02:42:06;19.00;;;15.03;;
76346;SDS011;77107;48.816;9.966;2024-03-08T02:44:32;17.27;;;14.33;;
76346;SDS011;77107;48.816;9.966;2024-03-08T02:46:58;18.70;;;15.00;;
76346;SDS011;77107;48.816;9.966;2024-03-08T02:49:24;19.77;;;15.37;;
76346;SDS011;77107;48.816;9.966;2024-03-08T02:51:51;19.07;;;14.80;;
76346;SDS011;77107;48.816;9.966;2024-03-08T02:54:17;20.07;;;15.17;;
76346;SDS011;77107;48.816;9.966;2024-03-08T02:56:43;20.00;;;14.87;;
76346;SDS011;77107;48.816;9.966;2024-03-08T02:59:09;20.10;;;16.00;;
76346;SDS011;77107;48.816;9.966;2024-03-08T03:01:34;20.50;;;16.03;;
76346;SDS011;77107;48.816;9.966;2024-03-08T03:04:00;18.80;;;14.40;;
76346;SDS011;77107;48.816;9.966;2024-03-08T03:06:26;16.87;;;14.23;;
76346;SDS011;77107;48.816;9.966;2024-03-08T03:08:51;19.03;;;15.33;;
76346;SDS011;77107;48.816;9.966;2024-03-08T03:11:16;20.10;;;15.30;;
76346;SDS011;77107;48.816;9.966;2024-03-08T03:13:43;19.57;;;14.83;;
76346;SDS011;77107;48.816;9.966;2024-03-08T03:16:16;19.77;;;15.00;;
76346;SDS011;77107;48.816;9.966;2024-03-08T03:18:43;18.13;;;14.70;;
76346;SDS011;77107;48.816;9.966;2024-03-08T03:21:08;18.87;;;14.47;;
76346;SDS011;77107;48.816;9.966;2024-03-08T03:23:34;20.07;;;15.73;;
76346;SDS011;77107;48.816;9.966;2024-03-08T03:25:59;20.20;;;15.83;;
76346;SDS011;77107;48.816;9.966;2024-03-08T03:28:25;18.63;;;14.73;;
76346;SDS011;77107;48.816;9.966;2024-03-08T03:30:52;20.20;;;15.70;;
76346;SDS011;77107;48.816;9.966;2024-03-08T03:33:18;19.13;;;15.53;;
76346;SDS011;77107;48.816;9.966;2024-03-08T03:35:43;19.57;;;15.07;;
76346;SDS011;77107;48.816;9.966;2024-03-08T03:38:09;19.93;;;15.30;;
76346;SDS011;77107;48.816;9.966;2024-03-08T03:40:34;20.07;;;15.50;;
76346;SDS011;77107;48.816;9.966;2024-03-08T03:43:00;21.10;;;17.03;;
76346;SDS011;77107;48.816;9.966;2024-03-08T03:45:26;20.83;;;16.70;;
76346;SDS011;77107;48.816;9.966;2024-03-08T03:47:53;20.60;;;16.03;;
76346;SDS011;77107;48.816;9.966;2024-03-08T03:50:18;20.43;;;16.53;;
76346;SDS011;77107;48.816;9.966;2024-03-08T03:52:47;21.40;;;16.57;;
76346;SDS011;77107;48.816;9.966;2024-03-08T03:55:13;21.90;;;17.23;;
76346;SDS011;77107;48.816;9.966;2024-03-08T03:57:39;22.13;;;17.67;;
76346;SDS011;77107;48.816;9.966;2024-03-08T04:00:05;21.03;;;17.13;;
76346;SDS011;77107;48.816;9.966;2024-03-08T04:02:31;19.67;;;17.27;;
76346;SDS011;77107;48.816;9.966;2024-03-08T04:04:58;22.27;;;16.30;;
76346;SDS011;77107;48.816;9.966;2024-03-08T04:07:23;21.73;;;17.07;;
76346;SDS011;77107;48.816;9.966;2024-03-08T04:09:49;21.43;;;17.70;;
76346;SDS011;77107;48.816;9.966;2024-03-08T04:12:15;22.07;;;17.70;;
76346;SDS011;77107;48.816;9.966;2024-03-08T04:14:41;21.70;;;16.93;;
76346;SDS011;77107;48.816;9.966;2024-03-08T04:17:07;22.87;;;17.63;;
76346;SDS011;77107;48.816;9.966;2024-03-08T04:19:34;21.47;;;17.27;;
76346;SDS011;77107;48.816;9.966;2024-03-08T04:22:00;23.00;;;17.40;;
76346;SDS011;77107;48.816;9.966;2024-03-08T04:24:27;19.90;;;16.57;;
76346;SDS011;77107;48.816;9.966;2024-03-08T04:26:52;20.60;;;17.00;;
76346;SDS011;77107;48.816;9.966;2024-03-08T04:29:18;20.83;;;17.40;;
76346;SDS011;77107;48.816;9.966;2024-03-08T04:31:43;21.40;;;17.07;;
76346;SDS011;77107;48.816;9.966;2024-03-08T04:34:09;21.37;;;16.40;;
76346;SDS011;77107;48.816;9.966;2024-03-08T04:36:35;22.43;;;18.20;;
76346;SDS011;77107;48.816;9.966;2024-03-08T04:39:01;23.70;;;17.17;;
76346;SDS011;77107;48.816;9.966;2024-03-08T04:41:27;21.83;;;17.70;;
76346;SDS011;77107;48.816;9.966;2024-03-08T04:43:53;23.30;;;17.93;;
76346;SDS011;77107;48.816;9.966;2024-03-08T04:46:18;23.20;;;18.43;;
76346;SDS011;77107;48.816;9.966;2024-03-08T04:48:44;23.47;;;18.27;;
76346;SDS011;77107;48.816;9.966;2024-03-08T04:51:09;23.60;;;18.30;;
76346;SDS011;77107;48.816;9.966;2024-03-08T04:53:35;22.70;;;17.33;;
76346;SDS011;77107;48.816;9.966;2024-03-08T04:56:02;23.07;;;18.43;;
76346;SDS011;77107;48.816;9.966;2024-03-08T04:58:31;23.17;;;18.73;;
76346;SDS011;77107;48.816;9.966;2024-03-08T05:00:56;23.93;;;17.33;;
76346;SDS011;77107;48.816;9.966;2024-03-08T05:03:22;21.90;;;17.67;;
76346;SDS011;77107;48.816;9.966;2024-03-08T05:05:47;21.07;;;17.33;;
76346;SDS011;77107;48.816;9.966;2024-03-08T05:08:12;24.70;;;18.37;;
76346;SDS011;77107;48.816;9.966;2024-03-08T05:10:38;22.53;;;17.53;;
76346;SDS011;77107;48.816;9.966;2024-03-08T05:13:04;22.83;;;17.60;;
76346;SDS011;77107;48.816;9.966;2024-03-08T05:15:30;23.23;;;18.10;;
76346;SDS011;77107;48.816;9.966;2024-03-08T05:17:59;21.50;;;17.53;;
76346;SDS011;77107;48.816;9.966;2024-03-08T05:20:25;22.40;;;18.33;;
76346;SDS011;77107;48.816;9.966;2024-03-08T05:22:51;21.47;;;17.13;;
76346;SDS011;77107;48.816;9.966;2024-03-08T05:25:16;22.43;;;18.00;;
76346;SDS011;77107;48.816;9.966;2024-03-08T05:27:42;23.13;;;17.37;;
76346;SDS011;77107;48.816;9.966;2024-03-08T05:30:09;21.63;;;17.60;;
76346;SDS011;77107;48.816;9.966;2024-03-08T05:32:40;22.00;;;17.90;;
76346;SDS011;77107;48.816;9.966;2024-03-08T05:35:08;21.40;;;17.30;;
76346;SDS011;77107;48.816;9.966;2024-03-08T05:37:35;21.80;;;17.43;;
76346;SDS011;77107;48.816;9.966;2024-03-08T05:40:00;23.47;;;17.40;;
76346;SDS011;77107;48.816;9.966;2024-03-08T05:42:25;23.43;;;18.73;;
76346;SDS011;77107;48.816;9.966;2024-03-08T05:44:51;22.53;;;18.47;;
76346;SDS011;77107;48.816;9.966;2024-03-08T05:47:18;32.53;;;25.40;;
76346;SDS011;77107;48.816;9.966;2024-03-08T05:49:44;23.53;;;18.33;;
76346;SDS011;77107;48.816;9.966;2024-03-08T05:52:09;21.57;;;17.07;;
76346;SDS011;77107;48.816;9.966;2024-03-08T05:54:35;22.13;;;17.50;;
76346;SDS011;77107;48.816;9.966;2024-03-08T05:57:00;22.93;;;17.43;;
76346;SDS011;77107;48.816;9.966;2024-03-08T05:59:26;25.37;;;17.27;;
76346;SDS011;77107;48.816;9.966;2024-03-08T06:01:51;21.00;;;17.40;;
76346;SDS011;77107;48.816;9.966;2024-03-08T06:04:18;20.77;;;16.83;;
76346;SDS011;77107;48.816;9.966;2024-03-08T06:06:44;21.73;;;17.50;;
76346;SDS011;77107;48.816;9.966;2024-03-08T06:09:09;21.97;;;17.47;;
76346;SDS011;77107;48.816;9.966;2024-03-08T06:11:39;20.17;;;16.23;;
76346;SDS011;77107;48.816;9.966;2024-03-08T06:14:04;22.83;;;17.10;;
76346;SDS011;77107;48.816;9.966;2024-03-08T06:16:31;21.73;;;17.00;;
76346;SDS011;77107;48.816;9.966;2024-03-08T06:18:58;23.23;;;17.77;;
76346;SDS011;77107;48.816;9.966;2024-03-08T06:21:25;23.07;;;18.50;;
76346;SDS011;77107;48.816;9.966;2024-03-08T06:23:51;21.33;;;17.17;;
76346;SDS011;77107;48.816;9.966;2024-03-08T06:26:19;22.70;;;18.43;;
76346;SDS011;77107;48.816;9.966;2024-03-08T06:28:45;21.20;;;18.30;;
76346;SDS011;77107;48.816;9.966;2024-03-08T06:31:10;20.70;;;16.30;;
76346;SDS011;77107;48.816;9.966;2024-03-08T06:33:36;19.30;;;16.07;;
76346;SDS011;77107;48.816;9.966;2024-03-08T06:36:02;20.67;;;16.13;;
76346;SDS011;77107;48.816;9.966;2024-03-08T06:38:29;22.17;;;16.87;;
76346;SDS011;77107;48.816;9.966;2024-03-08T06:40:55;22.03;;;17.00;;
76346;SDS011;77107;48.816;9.966;2024-03-08T06:43:21;21.00;;;16.13;;
76346;SDS011;77107;48.816;9.966;2024-03-08T06:45:46;21.03;;;16.30;;
76346;SDS011;77107;48.816;9.966;2024-03-08T06:48:15;19.97;;;15.97;;
76346;SDS011;77107;48.816;9.966;2024-03-08T06:50:42;20.70;;;16.63;;
76346;SDS011;77107;48.816;9.966;2024-03-08T06:53:07;21.07;;;16.60;;
76346;SDS011;77107;48.816;9.966;2024-03-08T06:55:34;21.37;;;17.27;;
76346;SDS011;77107;48.816;9.966;2024-03-08T06:58:00;21.00;;;16.73;;
76346;SDS011;77107;48.816;9.966;2024-03-08T07:00:25;21.43;;;16.93;;
76346;SDS011;77107;48.816;9.966;2024-03-08T07:02:53;22.43;;;16.50;;
76346;SDS011;77107;48.816;9.966;2024-03-08T07:05:19;21.57;;;16.10;;
76346;SDS011;77107;48.816;9.966;2024-03-08T07:07:44;21.13;;;17.23;;
76346;SDS011;77107;48.816;9.966;2024-03-08T07:10:13;23.27;;;18.07;;
76346;SDS011;77107;48.816;9.966;2024-03-08T07:12:41;24.07;;;19.67;;
76346;SDS011;77107;48.816;9.966;2024-03-08T07:15:07;20.57;;;17.67;;
76346;SDS011;77107;48.816;9.966;2024-03-08T07:17:33;18.87;;;16.50;;
76346;SDS011;77107;48.816;9.966;2024-03-08T07:20:00;21.90;;;17.30;;
76346;SDS011;77107;48.816;9.966;2024-03-08T07:22:32;22.13;;;16.93;;
76346;SDS011;77107;48.816;9.966;2024-03-08T07:24:57;23.87;;;18.03;;
76346;SDS011;77107;48.816;9.966;2024-03-08T07:27:35;22.03;;;17.30;;
76346;SDS011;77107;48.816;9.966;2024-03-08T07:30:02;19.80;;;16.10;;
76346;SDS011;77107;48.816;9.966;2024-03-08T07:32:28;21.77;;;17.00;;
76346;SDS011;77107;48.816;9.966;2024-03-08T07:34:55;24.53;;;18.10;;
76346;SDS011;77107;48.816;9.966;2024-03-08T07:37:20;22.57;;;17.33;;
76346;SDS011;77107;48.816;9.966;2024-03-08T07:39:46;24.47;;;16.87;;
76346;SDS011;77107;48.816;9.966;2024-03-08T07:42:11;23.00;;;17.67;;
76346;SDS011;77107;48.816;9.966;2024-03-08T07:44:37;21.37;;;16.50;;
76346;SDS011;77107;48.816;9.966;2024-03-08T07:47:04;23.93;;;17.73;;
76346;SDS011;77107;48.816;9.966;2024-03-08T07:49:29;23.60;;;17.63;;
76346;SDS011;77107;48.816;9.966;2024-03-08T07:51:55;23.93;;;18.23;;
76346;SDS011;77107;48.816;9.966;2024-03-08T07:54:20;22.90;;;17.50;;
76346;SDS011;77107;48.816;9.966;2024-03-08T07:56:45;24.13;;;18.27;;
76346;SDS011;77107;48.816;9.966;2024-03-08T07:59:11;22.33;;;17.43;;
76346;SDS011;77107;48.816;9.966;2024-03-08T08:01:37;23.60;;;17.67;;
76346;SDS011;77107;48.816;9.966;2024-03-08T08:04:04;22.90;;;17.90;;
76346;SDS011;77107;48.816;9.966;2024-03-08T08:06:30;23.50;;;17.80;;
76346;SDS011;77107;48.816;9.966;2024-03-08T08:08:58;22.30;;;17.37;;
76346;SDS011;77107;48.816;9.966;2024-03-08T08:11:25;23.20;;;17.30;;
76346;SDS011;77107;48.816;9.966;2024-03-08T08:13:52;23.37;;;17.40;;
76346;SDS011;77107;48.816;9.966;2024-03-08T08:16:19;25.07;;;18.10;;
76346;SDS011;77107;48.816;9.966;2024-03-08T08:18:45;22.87;;;17.53;;
76346;SDS011;77107;48.816;9.966;2024-03-08T08:21:12;24.77;;;18.17;;
76346;SDS011;77107;48.816;9.966;2024-03-08T08:23:37;26.00;;;18.37;;
76346;SDS011;77107;48.816;9.966;2024-03-08T08:26:03;25.07;;;18.27;;
76346;SDS011;77107;48.816;9.966;2024-03-08T08:28:29;25.90;;;18.77;;
76346;SDS011;77107;48.816;9.966;2024-03-08T08:30:55;26.27;;;20.17;;
76346;SDS011;77107;48.816;9.966;2024-03-08T08:33:21;22.40;;;18.20;;
76346;SDS011;77107;48.816;9.966;2024-03-08T08:35:46;25.60;;;19.47;;
76346;SDS011;77107;48.816;9.966;2024-03-08T08:38:14;24.77;;;18.70;;
76346;SDS011;77107;48.816;9.966;2024-03-08T08:40:39;26.70;;;18.93;;
76346;SDS011;77107;48.816;9.966;2024-03-08T08:43:06;23.93;;;18.13;;
76346;SDS011;77107;48.816;9.966;2024-03-08T08:45:32;25.43;;;18.43;;
76346;SDS011;77107;48.816;9.966;2024-03-08T08:47:58;24.77;;;19.37;;
76346;SDS011;77107;48.816;9.966;2024-03-08T08:50:24;24.83;;;18.90;;
76346;SDS011;77107;48.816;9.966;2024-03-08T08:52:51;25.93;;;18.07;;
76346;SDS011;77107;48.816;9.966;2024-03-08T08:55:19;25.93;;;18.97;;
76346;SDS011;77107;48.816;9.966;2024-03-08T08:57:50;24.50;;;18.73;;
76346;SDS011;77107;48.816;9.966;2024-03-08T09:00:17;29.00;;;21.13;;
76346;SDS011;77107;48.816;9.966;2024-03-08T09:02:43;24.37;;;18.57;;
76346;SDS011;77107;48.816;9.966;2024-03-08T09:05:09;23.83;;;18.30;;
76346;SDS011;77107;48.816;9.966;2024-03-08T09:07:34;22.87;;;17.77;;
76346;SDS011;77107;48.816;9.966;2024-03-08T09:10:00;25.93;;;19.57;;
76346;SDS011;77107;48.816;9.966;2024-03-08T09:12:27;24.83;;;18.63;;
76346;SDS011;77107;48.816;9.966;2024-03-08T09:14:52;25.10;;;18.93;;
76346;SDS011;77107;48.816;9.966;2024-03-08T09:17:18;25.30;;;19.10;;
76346;SDS011;77107;48.816;9.966;2024-03-08T09:19:46;25.03;;;18.83;;
76346;SDS011;77107;48.816;9.966;2024-03-08T09:22:12;23.37;;;17.87;;
76346;SDS011;77107;48.816;9.966;2024-03-08T09:24:38;23.03;;;18.23;;
76346;SDS011;77107;48.816;9.966;2024-03-08T09:27:03;26.83;;;19.00;;
76346;SDS011;77107;48.816;9.966;2024-03-08T09:29:30;23.30;;;18.20;;
76346;SDS011;77107;48.816;9.966;2024-03-08T09:31:56;24.23;;;17.77;;
76346;SDS011;77107;48.816;9.966;2024-03-08T09:34:21;25.20;;;18.40;;
76346;SDS011;77107;48.816;9.966;2024-03-08T09:36:46;23.63;;;17.50;;
76346;SDS011;77107;48.816;9.966;2024-03-08T09:39:12;24.50;;;18.10;;
76346;SDS011;77107;48.816;9.966;2024-03-08T09:41:42;23.93;;;17.70;;
76346;SDS011;77107;48.816;9.966;2024-03-08T09:44:08;24.83;;;18.80;;
76346;SDS011;77107;48.816;9.966;2024-03-08T09:46:35;23.80;;;18.17;;
76346;SDS011;77107;48.816;9.966;2024-03-08T09:49:01;24.17;;;17.87;;
76346;SDS011;77107;48.816;9.966;2024-03-08T09:51:27;24.33;;;17.53;;
76346;SDS011;77107;48.816;9.966;2024-03-08T09:53:54;24.53;;;17.73;;
76346;SDS011;77107;48.816;9.966;2024-03-08T09:56:19;21.80;;;17.00;;
76346;SDS011;77107;48.816;9.966;2024-03-08T09:58:45;24.67;;;18.03;;
76346;SDS011;77107;48.816;9.966;2024-03-08T10:01:29;23.67;;;17.80;;
76346;SDS011;77107;48.816;9.966;2024-03-08T10:03:56;22.80;;;16.80;;
76346;SDS011;77107;48.816;9.966;2024-03-08T10:06:22;21.93;;;17.80;;
76346;SDS011;77107;48.816;9.966;2024-03-08T10:08:48;21.37;;;16.93;;
76346;SDS011;77107;48.816;9.966;2024-03-08T10:11:13;22.97;;;17.40;;
76346;SDS011;77107;48.816;9.966;2024-03-08T10:13:39;22.30;;;17.37;;
76346;SDS011;77107;48.816;9.966;2024-03-08T10:16:06;21.50;;;16.80;;
76346;SDS011;77107;48.816;9.966;2024-03-08T10:18:32;22.93;;;18.07;;
76346;SDS011;77107;48.816;9.966;2024-03-08T10:21:05;21.87;;;17.13;;
76346;SDS011;77107;48.816;9.966;2024-03-08T10:23:32;23.03;;;17.70;;
76346;SDS011;77107;48.816;9.966;2024-03-08T10:26:02;22.20;;;17.17;;
76346;SDS011;77107;48.816;9.966;2024-03-08T10:28:35;21.43;;;17.37;;
76346;SDS011;77107;48.816;9.966;2024-03-08T10:31:00;23.97;;;18.20;;
76346;SDS011;77107;48.816;9.966;2024-03-08T10:33:25;23.17;;;17.67;;
76346;SDS011;77107;48.816;9.966;2024-03-08T10:35:51;21.87;;;16.93;;
76346;SDS011;77107;48.816;9.966;2024-03-08T10:38:18;21.97;;;17.47;;
76346;SDS011;77107;48.816;9.966;2024-03-08T10:40:46;22.57;;;18.13;;
76346;SDS011;77107;48.816;9.966;2024-03-08T10:43:17;21.57;;;17.53;;
76346;SDS011;77107;48.816;9.966;2024-03-08T10:45:49;21.27;;;17.37;;
76346;SDS011;77107;48.816;9.966;2024-03-08T10:48:26;22.03;;;16.33;;
76346;SDS011;77107;48.816;9.966;2024-03-08T10:50:56;21.10;;;17.00;;
76346;SDS011;77107;48.816;9.966;2024-03-08T10:53:23;20.33;;;16.87;;
76346;SDS011;77107;48.816;9.966;2024-03-08T10:55:52;20.80;;;17.00;;
76346;SDS011;77107;48.816;9.966;2024-03-08T10:58:18;21.40;;;17.70;;
76346;SDS011;77107;48.816;9.966;2024-03-08T11:00:45;23.50;;;17.50;;
76346;SDS011;77107;48.816;9.966;2024-03-08T11:06:11;19.20;;;16.43;;
76346;SDS011;77107;48.816;9.966;2024-03-08T11:08:41;20.20;;;17.00;;
76346;SDS011;77107;48.816;9.966;2024-03-08T11:11:09;20.00;;;16.93;;
76346;SDS011;77107;48.816;9.966;2024-03-08T11:13:52;18.47;;;15.00;;
76346;SDS011;77107;48.816;9.966;2024-03-08T11:16:36;20.73;;;16.00;;
76346;SDS011;77107;48.816;9.966;2024-03-08T11:19:06;19.97;;;16.20;;
76346;SDS011;77107;48.816;9.966;2024-03-08T11:21:50;21.10;;;17.33;;
76346;SDS011;77107;48.816;9.966;2024-03-08T11:24:24;20.80;;;16.30;;
76346;SDS011;77107;48.816;9.966;2024-03-08T11:26:49;19.20;;;16.03;;
76346;SDS011;77107;48.816;9.966;2024-03-08T11:29:35;20.23;;;16.30;;
76346;SDS011;77107;48.816;9.966;2024-03-08T11:32:07;19.80;;;15.90;;
76346;SDS011;77107;48.816;9.966;2024-03-08T11:34:34;18.70;;;16.63;;
76346;SDS011;77107;48.816;9.966;2024-03-08T11:37:01;20.23;;;16.43;;
76346;SDS011;77107;48.816;9.966;2024-03-08T11:39:30;19.47;;;16.67;;
76346;SDS011;77107;48.816;9.966;2024-03-08T11:41:55;21.30;;;17.70;;
76346;SDS011;77107;48.816;9.966;2024-03-08T11:44:21;22.03;;;17.37;;
76346;SDS011;77107;48.816;9.966;2024-03-08T11:46:46;17.50;;;15.03;;
76346;SDS011;77107;48.816;9.966;2024-03-08T11:49:12;18.57;;;16.03;;
76346;SDS011;77107;48.816;9.966;2024-03-08T11:51:38;18.23;;;15.20;;
76346;SDS011;77107;48.816;9.966;2024-03-08T11:54:03;18.53;;;15.73;;
76346;SDS011;77107;48.816;9.966;2024-03-08T11:56:32;19.33;;;15.73;;
76346;SDS011;77107;48.816;9.966;2024-03-08T11:58:59;19.03;;;15.87;;
76346;SDS011;77107;48.816;9.966;2024-03-08T12:01:25;18.33;;;15.50;;
76346;SDS011;77107;48.816;9.966;2024-03-08T12:03:52;20.23;;;16.30;;
76346;SDS011;77107;48.816;9.966;2024-03-08T12:06:18;17.43;;;15.53;;
76346;SDS011;77107;48.816;9.966;2024-03-08T12:08:43;18.43;;;15.67;;
76346;SDS011;77107;48.816;9.966;2024-03-08T12:11:08;19.53;;;16.50;;
76346;SDS011;77107;48.816;9.966;2024-03-08T12:13:36;19.20;;;16.47;;
76346;SDS011;77107;48.816;9.966;2024-03-08T12:16:02;19.27;;;16.60;;
76346;SDS011;77107;48.816;9.966;2024-03-08T12:18:32;19.00;;;15.93;;
76346;SDS011;77107;48.816;9.966;2024-03-08T12:21:05;18.70;;;15.93;;
76346;SDS011;77107;48.816;9.966;2024-03-08T12:23:35;18.47;;;15.27;;
76346;SDS011;77107;48.816;9.966;2024-03-08T12:26:11;18.63;;;15.43;;
76346;SDS011;77107;48.816;9.966;2024-03-08T12:28:42;17.40;;;14.87;;
76346;SDS011;77107;48.816;9.966;2024-03-08T12:31:12;16.17;;;14.47;;
76346;SDS011;77107;48.816;9.966;2024-03-08T12:33:47;18.30;;;16.33;;
76346;SDS011;77107;48.816;9.966;2024-03-08T12:36:14;19.57;;;15.57;;
76346;SDS011;77107;48.816;9.966;2024-03-08T12:38:39;17.20;;;15.40;;
76346;SDS011;77107;48.816;9.966;2024-03-08T12:41:05;17.77;;;15.60;;
76346;SDS011;77107;48.816;9.966;2024-03-08T12:43:32;17.57;;;15.47;;
76346;SDS011;77107;48.816;9.966;2024-03-08T12:46:00;21.03;;;17.00;;
76346;SDS011;77107;48.816;9.966;2024-03-08T12:48:25;19.10;;;15.40;;
76346;SDS011;77107;48.816;9.966;2024-03-08T12:50:51;18.70;;;15.73;;
76346;SDS011;77107;48.816;9.966;2024-03-08T12:53:17;20.43;;;16.67;;
76346;SDS011;77107;48.816;9.966;2024-03-08T12:55:42;19.60;;;16.27;;
76346;SDS011;77107;48.816;9.966;2024-03-08T12:58:08;17.97;;;15.53;;
76346;SDS011;77107;48.816;9.966;2024-03-08T13:00:34;17.40;;;15.57;;
76346;SDS011;77107;48.816;9.966;2024-03-08T13:03:03;18.40;;;16.33;;
76346;SDS011;77107;48.816;9.966;2024-03-08T13:05:28;17.77;;;15.50;;
76346;SDS011;77107;48.816;9.966;2024-03-08T13:07:55;16.57;;;14.77;;
76346;SDS011;77107;48.816;9.966;2024-03-08T13:10:21;17.10;;;14.70;;
76346;SDS011;77107;48.816;9.966;2024-03-08T13:12:47;16.97;;;15.20;;
76346;SDS011;77107;48.816;9.966;2024-03-08T13:15:13;15.80;;;14.20;;
76346;SDS011;77107;48.816;9.966;2024-03-08T13:17:45;17.33;;;14.30;;
76346;SDS011;77107;48.816;9.966;2024-03-08T13:20:13;16.67;;;14.97;;
76346;SDS011;77107;48.816;9.966;2024-03-08T13:22:42;17.63;;;15.13;;
76346;SDS011;77107;48.816;9.966;2024-03-08T13:25:08;17.07;;;14.67;;
76346;SDS011;77107;48.816;9.966;2024-03-08T13:27:38;16.00;;;14.27;;
76346;SDS011;77107;48.816;9.966;2024-03-08T13:30:04;17.30;;;14.53;;
76346;SDS011;77107;48.816;9.966;2024-03-08T13:32:32;16.07;;;14.37;;
76346;SDS011;77107;48.816;9.966;2024-03-08T13:34:57;16.47;;;14.70;;
76346;SDS011;77107;48.816;9.966;2024-03-08T13:37:24;17.03;;;15.33;;
76346;SDS011;77107;48.816;9.966;2024-03-08T13:39:49;16.37;;;14.67;;
76346;SDS011;77107;48.816;9.966;2024-03-08T13:42:15;16.17;;;14.47;;
76346;SDS011;77107;48.816;9.966;2024-03-08T13:44:44;16.67;;;14.97;;
76346;SDS011;77107;48.816;9.966;2024-03-08T13:47:11;17.57;;;14.43;;
76346;SDS011;77107;48.816;9.966;2024-03-08T13:49:36;17.07;;;15.33;;
76346;SDS011;77107;48.816;9.966;2024-03-08T13:52:02;16.23;;;14.63;;
76346;SDS011;77107;48.816;9.966;2024-03-08T13:54:30;16.20;;;14.53;;
76346;SDS011;77107;48.816;9.966;2024-03-08T13:56:56;16.77;;;14.97;;
76346;SDS011;77107;48.816;9.966;2024-03-08T13:59:22;15.13;;;13.63;;
76346;SDS011;77107;48.816;9.966;2024-03-08T14:01:47;15.17;;;13.57;;
76346;SDS011;77107;48.816;9.966;2024-03-08T14:04:13;15.47;;;13.87;;
76346;SDS011;77107;48.816;9.966;2024-03-08T14:06:42;14.77;;;13.30;;
76346;SDS011;77107;48.816;9.966;2024-03-08T14:09:08;15.63;;;14.13;;
76346;SDS011;77107;48.816;9.966;2024-03-08T14:11:34;15.30;;;13.80;;
76346;SDS011;77107;48.816;9.966;2024-03-08T14:14:00;14.97;;;13.57;;
76346;SDS011;77107;48.816;9.966;2024-03-08T14:16:25;14.27;;;12.87;;
76346;SDS011;77107;48.816;9.966;2024-03-08T14:18:51;14.80;;;13.37;;
76346;SDS011;77107;48.816;9.966;2024-03-08T14:21:16;14.37;;;13.00;;